.
WxDataArchive / Data Records for 2006-12-27
2006-12-26 December 2006 2006-12-28

Data Records for Wednesday, 27 December 2006

Time	Temp	Chill	HIndex	Humid	Dewpt	 Wind 	HiWind	WindDir	Rain 	Barom 
-----	----	-----	------	-----	-----	------	------	-------	-----	----- 
00:00	30.7	30.7	30.7	79	25.0	3	9	248	0.00	29.950 
00:05	30.7	30.7	30.7	77	24.4	3	7	270	0.00	29.950 
00:10	30.7	30.7	30.7	77	24.4	2	6	248	0.00	29.950 
00:15	30.7	30.7	30.7	76	24.0	2	4	248	0.00	29.948 
00:20	30.6	30.6	30.6	75	23.6	3	9	270	0.00	29.948 
00:25	30.6	30.6	30.6	75	23.6	3	6	270	0.00	29.948 
00:30	30.6	30.6	30.6	74	23.3	3	11	270	0.00	29.946 
00:35	30.6	30.6	30.6	75	23.6	2	5	248	0.00	29.946 
00:40	30.6	30.6	30.6	74	23.3	3	7	270	0.00	29.946 
00:45	30.6	30.6	30.6	75	23.6	2	6	270	0.00	29.944 
00:50	30.4	30.4	30.4	74	23.1	2	9	248	0.00	29.944 
00:55	30.4	30.4	30.4	75	23.4	2	7	248	0.00	29.944 
01:00	30.4	30.4	30.4	75	23.4	2	6	270	0.00	29.948 
01:05	30.4	30.4	30.4	75	23.4	3	8	270	0.00	29.948 
01:10	30.6	30.6	30.6	75	23.6	3	9	292	0.00	29.948 
01:15	30.6	30.6	30.6	75	23.6	2	6	270	0.00	29.949 
01:20	30.6	30.6	30.6	75	23.6	1	5	248	0.00	29.949 
01:25	30.6	30.6	30.6	76	24.0	2	6	270	0.00	29.949 
01:30	30.6	30.6	30.6	76	24.0	2	5	270	0.00	29.948 
01:35	30.7	30.7	30.7	76	24.0	3	7	270	0.00	29.948 
01:40	30.7	30.7	30.7	77	24.4	2	5	248	0.00	29.948 
01:45	30.6	30.6	30.6	77	24.3	2	5	248	0.00	29.948 
01:50	30.4	30.4	30.4	77	24.1	2	5	248	0.00	29.948 
01:55	30.3	30.3	30.3	78	24.3	2	5	270	0.00	29.948 
02:00	30.3	30.3	30.3	78	24.3	3	6	248	0.00	29.951 
02:05	30.1	30.1	30.1	79	24.4	2	5	270	0.00	29.951 
02:10	30.0	30.0	30.0	79	24.3	1	5	248	0.00	29.951 
02:15	29.8	29.8	29.8	80	24.4	2	6	248	0.00	29.960 
02:20	29.8	29.8	29.8	80	24.4	2	9	248	0.00	29.960 
02:25	29.8	29.8	29.8	81	24.7	2	6	248	0.00	29.960 
02:30	29.8	29.8	29.8	81	24.7	2	6	248	0.00	29.962 
02:35	29.7	29.7	29.7	81	24.6	3	11	270	0.00	29.962 
02:40	29.7	29.7	29.7	82	24.9	2	7	270	0.00	29.962 
02:45	29.5	29.5	29.5	82	24.7	2	6	248	0.00	29.964 
02:50	29.4	29.4	29.4	82	24.6	1	6	248	0.00	29.964 
02:55	29.3	29.3	29.3	83	24.8	1	4	270	0.00	29.964 
03:00	29.3	29.3	29.3	83	24.8	2	7	248	0.00	29.967 
03:05	29.1	29.1	29.1	83	24.6	2	6	248	0.00	29.967 
03:10	29.1	29.1	29.1	83	24.6	2	9	248	0.00	29.967 
03:15	29.1	29.1	29.1	83	24.6	2	6	248	0.00	29.966 
03:20	29.0	29.0	29.0	83	24.5	2	5	248	0.00	29.966 
03:25	29.0	29.0	29.0	84	24.8	2	5	248	0.00	29.966 
03:30	28.8	28.8	28.8	84	24.6	2	6	248	0.00	29.963 
03:35	28.8	28.8	28.8	84	24.6	1	5	248	0.00	29.963 
03:40	28.7	28.7	28.7	84	24.5	1	3	248	0.00	29.963 
03:45	28.7	28.7	28.7	84	24.5	2	4	248	0.00	29.957 
03:50	28.8	28.8	28.8	84	24.6	2	5	248	0.00	29.957 
03:55	28.8	28.8	28.8	84	24.6	2	7	248	0.00	29.957 
04:00	28.8	28.8	28.8	84	24.6	2	6	248	0.00	29.953 
04:05	29.0	29.0	29.0	84	24.8	2	6	248	0.00	29.953 
04:10	29.0	29.0	29.0	83	24.5	2	5	248	0.00	29.953 
04:15	29.0	29.0	29.0	83	24.5	1	5	248	0.00	29.952 
04:20	29.0	29.0	29.0	83	24.5	1	4	248	0.00	29.952 
04:25	29.0	29.0	29.0	83	24.5	2	6	248	0.00	29.952 
04:30	29.0	29.0	29.0	84	24.8	2	5	248	0.00	29.950 
04:35	29.0	29.0	29.0	84	24.8	1	3	248	0.00	29.950 
04:40	29.0	29.0	29.0	83	24.5	2	6	248	0.00	29.950 
04:45	29.0	29.0	29.0	83	24.5	2	5	248	0.00	29.949 
04:50	29.0	29.0	29.0	84	24.8	2	7	248	0.00	29.949 
04:55	29.0	29.0	29.0	83	24.5	2	5	248	0.00	29.949 
05:00	29.0	29.0	29.0	83	24.5	2	6	248	0.00	29.949 
05:05	29.0	29.0	29.0	83	24.5	2	7	248	0.00	29.949 
05:10	29.0	29.0	29.0	83	24.5	2	6	248	0.00	29.949 
05:15	29.0	29.0	29.0	83	24.5	2	6	248	0.00	29.950 
05:20	29.0	29.0	29.0	83	24.5	2	5	248	0.00	29.950 
05:25	29.0	29.0	29.0	83	24.5	2	6	248	0.00	29.950 
05:30	29.0	29.0	29.0	83	24.5	2	5	248	0.00	29.949 
05:35	29.0	29.0	29.0	83	24.5	1	5	248	0.00	29.949 
05:40	29.0	29.0	29.0	83	24.5	2	6	248	0.00	29.949 
05:45	29.0	29.0	29.0	83	24.5	2	5	248	0.00	29.950 
05:50	29.0	29.0	29.0	83	24.5	2	5	248	0.00	29.950 
05:55	28.8	28.8	28.8	83	24.3	2	5	248	0.00	29.950 
06:00	28.8	28.8	28.8	83	24.3	1	4	248	0.00	29.953 
06:05	28.8	28.8	28.8	83	24.3	2	5	248	0.00	29.953 
06:10	28.8	28.8	28.8	82	24.0	2	5	248	0.00	29.953 
06:15	29.0	29.0	29.0	82	24.2	2	6	248	0.00	29.967 
06:20	29.0	29.0	29.0	82	24.2	2	5	248	0.00	29.967 
06:25	29.1	29.1	29.1	82	24.3	2	7	225	0.00	29.967 
06:30	29.1	29.1	29.1	82	24.3	2	7	248	0.00	29.968 
06:35	29.3	29.3	29.3	81	24.2	2	6	248	0.00	29.968 
06:40	29.3	29.3	29.3	81	24.2	2	4	248	0.00	29.968 
06:45	29.4	29.4	29.4	81	24.3	3	7	270	0.00	29.969 
06:50	29.4	29.4	29.4	81	24.3	3	6	248	0.00	29.969 
06:55	29.5	29.5	29.5	80	24.1	3	9	248	0.00	29.969 
07:00	29.7	29.7	29.7	79	24.0	3	9	248	0.00	29.967 
07:05	29.8	29.8	29.8	79	24.1	3	7	248	0.00	29.967 
07:10	29.8	29.8	29.8	79	24.1	2	5	248	0.00	29.967 
07:15	30.0	30.0	30.0	78	24.0	3	6	248	0.00	29.979 
07:20	30.0	30.0	30.0	78	24.0	3	6	248	0.00	29.979 
07:25	30.0	30.0	30.0	78	24.0	3	8	248	0.00	29.979 
07:30	30.1	30.1	30.1	78	24.1	3	9	248	0.00	29.983 
07:35	30.1	30.1	30.1	78	24.1	2	6	248	0.00	29.983 
07:40	30.1	30.1	30.1	78	24.1	3	10	270	0.00	29.983 
07:45	30.3	30.3	30.3	78	24.3	3	7	248	0.00	29.984 
07:50	30.1	30.1	30.1	78	24.1	2	6	248	0.00	29.984 
07:55	30.3	30.3	30.3	78	24.3	1	4	248	0.00	29.984 
08:00	30.3	30.3	30.3	77	24.0	2	6	248	0.00	29.989 
08:05	30.3	30.3	30.3	77	24.0	2	6	248	0.00	29.989 
08:10	30.3	30.3	30.3	77	24.0	2	5	248	0.00	29.989 
08:15	30.4	30.4	30.4	77	24.1	3	7	248	0.00	29.989 
08:20	30.4	30.4	30.4	77	24.1	3	6	248	0.00	29.989 
08:25	30.4	30.4	30.4	77	24.1	2	6	248	0.00	29.989 
08:30	30.6	30.6	30.6	77	24.3	2	5	248	0.00	29.998 
08:35	30.6	30.6	30.6	77	24.3	3	10	248	0.00	29.998 
08:40	30.7	30.7	30.7	77	24.4	2	7	248	0.00	29.998 
08:45	30.7	30.7	30.7	77	24.4	2	6	248	0.00	30.004 
08:50	30.7	30.7	30.7	77	24.4	2	7	248	0.00	30.004 
08:55	30.9	30.9	30.9	76	24.2	2	7	248	0.00	30.004 
09:00	30.9	30.9	30.9	77	24.6	1	6	248	0.00	30.012 
09:05	31.0	31.0	31.0	77	24.7	2	7	270	0.00	30.012 
09:10	31.0	31.0	31.0	77	24.7	2	6	248	0.00	30.012 
09:15	31.2	31.2	31.2	76	24.5	3	10	248	0.00	30.015 
09:20	31.2	31.2	31.2	76	24.5	3	7	270	0.00	30.015 
09:25	31.3	31.3	31.3	76	24.6	3	11	270	0.00	30.015 
09:30	31.5	31.5	31.5	76	24.8	3	10	248	0.00	30.028 
09:35	31.5	31.5	31.5	76	24.8	2	5	270	0.00	30.028 
09:40	31.6	31.6	31.6	75	24.6	2	5	248	0.00	30.028 
09:45	31.8	31.8	31.8	75	24.8	3	7	248	0.00	30.031 
09:50	31.9	28.0	31.9	75	24.9	4	10	270	0.00	30.031 
09:55	32.1	32.1	32.1	75	25.1	2	7	248	0.00	30.031 
10:00	32.2	32.2	32.2	75	25.2	2	6	270	0.00	30.043 
10:05	32.2	32.2	32.2	74	24.9	3	9	270	0.00	30.043 
10:10	32.4	32.4	32.4	74	25.1	3	7	248	0.00	30.043 
10:15	32.4	32.4	32.4	74	25.1	3	7	248	0.00	30.047 
10:20	32.5	32.5	32.5	73	24.8	3	9	270	0.00	30.047 
10:25	32.7	32.7	32.7	74	25.3	3	11	248	0.00	30.047 
10:30	32.8	32.8	32.8	73	25.1	3	9	270	0.00	30.045 
10:35	32.9	32.9	32.9	72	24.9	3	8	270	0.00	30.045 
10:40	33.1	33.1	33.1	72	25.1	3	9	248	0.00	30.045 
10:45	33.2	33.2	33.2	73	25.5	3	7	248	0.00	30.055 
10:50	33.5	33.5	33.5	73	25.8	3	10	270	0.00	30.055 
10:55	33.7	33.7	33.7	73	26.0	2	10	225	0.00	30.055 
11:00	34.0	34.0	34.0	71	25.6	3	9	270	0.00	30.057 
11:05	34.0	34.0	34.0	71	25.6	3	8	270	0.00	30.057 
11:10	34.0	34.0	34.0	71	25.6	3	7	270	0.00	30.057 
11:15	34.1	34.1	34.1	72	26.0	3	7	270	0.00	30.060 
11:20	34.3	34.3	34.3	72	26.2	3	10	270	0.00	30.060 
11:25	34.4	34.4	34.4	71	26.0	3	11	270	0.00	30.060 
11:30	34.4	30.8	34.4	70	25.6	4	11	248	0.00	30.057 
11:35	34.6	34.6	34.6	71	26.2	3	7	248	0.00	30.057 
11:40	34.9	34.9	34.9	70	26.1	3	7	248	0.00	30.057 
11:45	35.2	35.2	35.2	70	26.4	3	10	248	0.00	30.050 
11:50	35.3	31.9	35.3	69	26.2	4	7	270	0.00	30.050 
11:55	35.5	32.1	35.5	68	26.0	4	13	248	0.00	30.050 
12:00	35.6	35.6	35.6	68	26.1	3	11	270	0.00	30.045 
12:05	35.8	35.8	35.8	68	26.3	3	7	248	0.00	30.045 
12:10	36.0	36.0	36.0	68	26.5	2	7	248	0.00	30.045 
12:15	36.5	36.5	36.5	68	27.0	2	5	248	0.00	30.042 
12:20	36.6	36.6	36.6	67	26.7	3	7	248	0.00	30.042 
12:25	36.9	36.9	36.9	68	27.3	1	4	248	0.00	30.042 
12:30	37.0	37.0	37.0	67	27.1	2	4	248	0.00	30.040 
12:35	37.2	37.2	37.2	67	27.3	2	6	248	0.00	30.040 
12:40	37.3	37.3	37.3	67	27.4	2	8	248	0.00	30.040 
12:45	37.8	37.8	37.8	65	27.1	2	6	248	0.00	30.033 
12:50	38.0	38.0	38.0	65	27.3	2	6	248	0.00	30.033 
12:55	38.2	38.2	38.2	65	27.5	2	6	248	0.00	30.033 
13:00	38.5	38.5	38.5	64	27.4	2	6	248	0.00	30.028 
13:05	38.5	38.5	38.5	64	27.4	2	6	270	0.00	30.028 
13:10	38.8	38.8	38.8	63	27.3	2	5	248	0.00	30.028 
13:15	38.9	38.9	38.9	63	27.4	2	5	270	0.00	30.024 
13:20	39.1	39.1	39.1	62	27.2	2	7	270	0.00	30.024 
13:25	39.1	39.1	39.1	62	27.2	2	4	248	0.00	30.024 
13:30	39.3	39.3	39.3	62	27.4	2	6	270	0.00	30.025 
13:35	39.3	39.3	39.3	62	27.4	1	4	248	0.00	30.025 
13:40	39.5	39.5	39.5	61	27.2	3	9	248	0.00	30.025 
13:45	39.8	39.8	39.8	60	27.1	2	5	248	0.00	30.021 
13:50	40.1	40.1	40.1	61	27.7	1	3	248	0.00	30.021 
13:55	39.9	39.9	39.9	60	27.2	2	5	248	0.00	30.021 
14:00	39.9	39.9	39.9	61	27.6	1	4	248	0.00	30.018 
14:05	40.2	40.2	40.2	62	28.2	1	3	248	0.00	30.018 
14:10	40.6	40.6	40.6	63	29.0	1	3	248	0.00	30.018 
14:15	40.6	40.6	40.6	60	27.8	2	6	248	0.00	30.015 
14:20	40.6	40.6	40.6	60	27.8	2	6	248	0.00	30.015 
14:25	40.5	40.5	40.5	60	27.7	2	7	248	0.00	30.015 
14:30	40.3	40.3	40.3	60	27.5	3	7	248	0.00	30.019 
14:35	40.3	40.3	40.3	62	28.3	2	4	248	0.00	30.019 
14:40	40.2	40.2	40.2	61	27.8	2	7	248	0.00	30.019 
14:45	40.2	40.2	40.2	62	28.2	2	4	248	0.00	30.021 
14:50	40.1	40.1	40.1	62	28.1	3	6	248	0.00	30.021 
14:55	39.9	39.9	39.9	62	28.0	3	6	248	0.00	30.021 
15:00	39.9	39.9	39.9	62	28.0	2	5	248	0.00	30.022 
15:05	39.9	39.9	39.9	62	28.0	2	5	248	0.00	30.022 
15:10	39.9	39.9	39.9	61	27.6	3	6	248	0.00	30.022 
15:15	40.1	40.1	40.1	61	27.7	2	5	248	0.00	30.025 
15:20	40.1	40.1	40.1	61	27.7	2	6	248	0.00	30.025 
15:25	40.1	40.1	40.1	61	27.7	2	5	248	0.00	30.025 
15:30	39.9	39.9	39.9	62	28.0	3	6	248	0.00	30.036 
15:35	39.8	39.8	39.8	62	27.9	2	5	248	0.00	30.036 
15:40	39.8	39.8	39.8	62	27.9	2	5	248	0.00	30.036 
15:45	39.6	39.6	39.6	62	27.7	2	6	248	0.00	30.043 
15:50	39.6	39.6	39.6	63	28.1	2	6	248	0.00	30.043 
15:55	39.5	39.5	39.5	63	28.0	2	4	248	0.00	30.043 
16:00	39.5	39.5	39.5	65	28.7	1	5	248	0.00	30.051 
16:05	39.5	39.5	39.5	65	28.7	0	2	248	0.00	30.051 
16:10	39.5	39.5	39.5	64	28.3	0	3	248	0.00	30.051 
16:15	39.5	39.5	39.5	64	28.3	1	3	248	0.00	30.054 
16:20	39.3	39.3	39.3	63	27.8	1	4	248	0.00	30.054 
16:25	39.3	39.3	39.3	63	27.8	1	4	248	0.00	30.054 
16:30	39.2	39.2	39.2	63	27.7	1	5	248	0.00	30.052 
16:35	39.2	39.2	39.2	62	27.3	2	5	248	0.00	30.052 
16:40	39.1	39.1	39.1	64	28.0	1	3	248	0.00	30.052 
16:45	39.1	39.1	39.1	67	29.1	1	4	248	0.00	30.056 
16:50	38.8	38.8	38.8	68	29.2	0	3	248	0.00	30.056 
16:55	38.6	38.6	38.6	69	29.3	1	3	248	0.00	30.056 
17:00	38.5	38.5	38.5	69	29.2	0	2	248	0.00	30.067 
17:05	38.3	38.3	38.3	69	29.0	0	2	248	0.00	30.067 
17:10	38.2	38.2	38.2	69	28.9	1	2	248	0.00	30.067 
17:15	38.2	38.2	38.2	67	28.2	1	4	248	0.00	30.074 
17:20	38.0	38.0	38.0	68	28.4	1	3	248	0.00	30.074 
17:25	38.0	38.0	38.0	68	28.4	1	4	248	0.00	30.074 
17:30	37.9	37.9	37.9	69	28.7	0	2	248	0.00	30.077 
17:35	37.8	37.8	37.8	70	28.9	0	3	248	0.00	30.077 
17:40	37.8	37.8	37.8	70	28.9	0	3	248	0.00	30.077 
17:45	37.6	37.6	37.6	71	29.1	0	1	270	0.00	30.077 
17:50	37.6	37.6	37.6	72	29.4	0	2	292	0.00	30.077 
17:55	37.5	37.5	37.5	72	29.3	0	3	0	0.00	30.077 
18:00	37.5	37.5	37.5	73	29.6	0	1	248	0.00	30.077 
18:05	37.3	37.3	37.3	73	29.5	0	2	180	0.00	30.077 
18:10	37.3	37.3	37.3	73	29.5	0	2	180	0.00	30.077 
18:15	37.3	37.3	37.3	74	29.8	0	1	158	0.00	30.083 
18:20	37.2	37.2	37.2	74	29.7	0	1	158	0.00	30.083 
18:25	37.2	37.2	37.2	74	29.7	0	1	158	0.00	30.083 
18:30	37.0	37.0	37.0	75	29.8	0	1	158	0.00	30.089 
18:35	37.0	37.0	37.0	75	29.8	0	1	158	0.00	30.089 
18:40	37.0	37.0	37.0	76	30.2	0	1	158	0.00	30.089 
18:45	36.9	36.9	36.9	76	30.1	0	0	---	0.00	30.089 
18:50	36.9	36.9	36.9	76	30.1	0	1	158	0.00	30.089 
18:55	36.9	36.9	36.9	76	30.1	0	1	158	0.00	30.089 
19:00	36.9	36.9	36.9	77	30.4	0	1	158	0.00	30.089 
19:05	36.9	36.9	36.9	77	30.4	0	0	---	0.00	30.089 
19:10	36.9	36.9	36.9	77	30.4	0	1	158	0.00	30.089 
19:15	36.9	36.9	36.9	77	30.4	0	2	225	0.00	30.089 
19:20	36.9	36.9	36.9	77	30.4	0	2	225	0.00	30.089 
19:25	36.9	36.9	36.9	77	30.4	0	1	225	0.00	30.089 
19:30	36.9	36.9	36.9	77	30.4	0	1	225	0.00	30.089 
19:35	37.0	37.0	37.0	77	30.5	0	2	225	0.00	30.089 
19:40	37.2	37.2	37.2	77	30.7	0	1	225	0.00	30.089 
19:45	37.3	37.3	37.3	77	30.8	1	4	270	0.00	30.087 
19:50	37.5	37.5	37.5	76	30.6	0	4	270	0.00	30.087 
19:55	37.6	37.6	37.6	76	30.7	1	3	270	0.00	30.087 
20:00	37.8	37.8	37.8	75	30.6	1	3	270	0.00	30.086 
20:05	38.0	38.0	38.0	74	30.5	2	5	248	0.00	30.086 
20:10	38.2	38.2	38.2	73	30.3	2	7	248	0.00	30.086 
20:15	38.3	38.3	38.3	72	30.1	1	6	270	0.00	30.088 
20:20	38.3	38.3	38.3	72	30.1	2	5	225	0.00	30.088 
20:25	38.3	38.3	38.3	71	29.7	2	7	248	0.00	30.088 
20:30	38.3	38.3	38.3	72	30.1	1	4	270	0.00	30.091 
20:35	38.3	38.3	38.3	72	30.1	1	4	270	0.00	30.091 
20:40	38.2	38.2	38.2	72	30.0	2	5	248	0.00	30.091 
20:45	38.2	38.2	38.2	73	30.3	1	5	225	0.00	30.092 
20:50	38.0	38.0	38.0	73	30.1	2	5	248	0.00	30.092 
20:55	37.9	37.9	37.9	73	30.0	2	7	248	0.00	30.092 
21:00	37.8	37.8	37.8	74	30.3	1	6	248	0.00	30.097 
21:05	37.8	37.8	37.8	74	30.3	1	5	248	0.00	30.097 
21:10	37.6	37.6	37.6	74	30.1	1	4	248	0.00	30.097 
21:15	37.5	37.5	37.5	74	30.0	1	5	270	0.00	30.096 
21:20	37.3	37.3	37.3	75	30.1	1	4	225	0.00	30.096 
21:25	37.0	37.0	37.0	75	29.8	1	2	270	0.00	30.096 
21:30	37.0	37.0	37.0	75	29.8	1	6	248	0.00	30.098 
21:35	36.9	36.9	36.9	76	30.1	1	3	248	0.00	30.098 
21:40	36.8	36.8	36.8	76	30.0	1	4	248	0.00	30.098 
21:45	36.6	36.6	36.6	76	29.8	0	2	248	0.00	30.102 
21:50	36.5	36.5	36.5	76	29.7	0	2	248	0.00	30.102 
21:55	36.3	36.3	36.3	76	29.5	0	3	248	0.00	30.102 
22:00	36.3	36.3	36.3	76	29.5	0	3	248	0.00	30.104 
22:05	36.2	36.2	36.2	76	29.4	0	4	248	0.00	30.104 
22:10	36.2	36.2	36.2	76	29.4	0	2	248	0.00	30.104 
22:15	36.0	36.0	36.0	76	29.2	0	1	270	0.00	30.103 
22:20	35.9	35.9	35.9	76	29.1	0	1	270	0.00	30.103 
22:25	35.8	35.8	35.8	77	29.3	0	1	270	0.00	30.103 
22:30	35.6	35.6	35.6	77	29.1	0	1	270	0.00	30.104 
22:35	35.5	35.5	35.5	77	29.0	0	1	270	0.00	30.104 
22:40	35.3	35.3	35.3	77	28.8	0	0	---	0.00	30.104 
22:45	35.2	35.2	35.2	78	29.0	0	1	270	0.00	30.106 
22:50	35.2	35.2	35.2	78	29.0	0	1	270	0.00	30.106 
22:55	35.0	35.0	35.0	78	28.8	0	1	270	0.00	30.106 
23:00	35.0	35.0	35.0	78	28.8	0	1	270	0.00	30.114 
23:05	35.0	35.0	35.0	78	28.8	0	1	270	0.00	30.114 
23:10	35.2	35.2	35.2	77	28.7	0	2	270	0.00	30.114 
23:15	35.3	35.3	35.3	77	28.8	0	1	270	0.00	30.116 
23:20	35.5	35.5	35.5	77	29.0	0	1	270	0.00	30.116 
23:25	35.5	35.5	35.5	77	29.0	0	1	270	0.00	30.116 
23:30	35.6	35.6	35.6	76	28.8	0	1	270	0.00	30.118 
23:35	35.8	35.8	35.8	75	28.7	0	3	270	0.00	30.118 
23:40	36.0	36.0	36.0	74	28.5	1	3	270	0.00	30.118 
23:45	36.2	36.2	36.2	74	28.7	0	3	248	0.00	30.120 
23:50	36.2	36.2	36.2	74	28.7	0	1	248	0.00	30.120 
23:55	36.2	36.2	36.2	74	28.7	0	1	248	0.00	30.120 

CoCoRaHS
IN-AL-39
A2 Web Hosting
Creative Commons License
GoDaddy
Look for:

loaded 2017-10-18 21:49:05 • last modified 2010-11-18 10:43:29
Privacy PolicyDisclaimer
• wx.awcolley.com is powered by PmWiki v.2002016 •
• all content (unless otherwise noted) © 2017 A W Colley